Time;durP1;ratioP1;P1;durP2;ratioP2;P2;SDS_P1;SDS_P2;PMS_P1;PMS_P2;Temp;Humidity;BMP_temperature;BMP_pressure;BME280_temperature;BME280_humidity;BME280_pressure;Samples;Min_cycle;Max_cycle;Signal;HPM_P1;HPM_P2
2021/07/04 00:00:36;;;;;;;6.72;4.85;;;;;;;25.19;63.27;98800.94;1773521;79;21581;-70
2021/07/04 00:03:03;;;;;;;5.22;4.75;;;;;;;25.17;63.31;98797.70;1774169;79;21204;-68
2021/07/04 00:05:34;;;;;;;5.97;5.47;;;;;;;25.16;63.38;98795.27;1789064;80;21035;-68
2021/07/04 00:08:01;;;;;;;6.05;4.95;;;;;;;25.15;63.46;98799.89;1773853;80;21088;-68
2021/07/04 00:10:31;;;;;;;5.15;4.75;;;;;;;25.12;63.56;98808.05;1774194;79;21050;-69
2021/07/04 00:12:58;;;;;;;5.83;5.30;;;;;;;25.11;63.64;98804.25;1771704;80;21050;-69
2021/07/04 00:15:26;;;;;;;5.50;5.00;;;;;;;25.10;63.70;98802.09;1795042;79;21066;-68
2021/07/04 00:17:53;;;;;;;5.53;5.03;;;;;;;25.09;63.67;98797.77;1779514;80;21056;-69
2021/07/04 00:20:20;;;;;;;5.10;4.70;;;;;;;25.08;63.68;98807.01;1779938;80;21045;-68
2021/07/04 00:22:47;;;;;;;5.58;5.12;;;;;;;25.07;63.74;98810.00;1792774;79;21014;-68
2021/07/04 00:25:16;;;;;;;5.42;4.92;;;;;;;25.05;63.77;98807.59;1779584;79;21218;-68
2021/07/04 00:27:42;;;;;;;6.83;5.60;;;;;;;25.05;63.92;98808.12;1782073;79;22330;-69
2021/07/04 00:30:12;;;;;;;6.00;5.50;;;;;;;25.04;64.01;98809.23;1727926;80;21585;-68
2021/07/04 00:32:38;;;;;;;6.53;5.92;;;;;;;25.01;64.00;98805.72;1772182;79;21057;-69
2021/07/04 00:35:07;;;;;;;6.10;5.60;;;;;;;25.00;63.96;98793.25;1779544;80;21089;-69
2021/07/04 00:37:34;;;;;;;6.45;5.62;;;;;;;24.97;63.90;98790.53;1779907;80;21062;-69
2021/07/04 00:40:01;;;;;;;6.62;5.97;;;;;;;24.97;63.88;98795.17;1779695;79;21053;-69
2021/07/04 00:42:28;;;;;;;6.12;5.55;;;;;;;24.95;63.85;98791.92;1779640;79;21120;-68
2021/07/04 00:44:56;;;;;;;6.22;5.70;;;;;;;24.93;63.89;98795.73;1779522;80;21061;-69
2021/07/04 00:47:22;;;;;;;7.30;6.70;;;;;;;24.91;63.88;98790.33;1747954;80;21037;-69
2021/07/04 00:49:48;;;;;;;10.65;9.55;;;;;;;24.90;63.88;98792.24;1775477;80;21549;-68
2021/07/04 00:52:18;;;;;;;8.73;7.90;;;;;;;24.90;63.91;98789.52;1751835;80;21133;-69
2021/07/04 00:54:44;;;;;;;8.45;6.85;;;;;;;24.89;63.90;98799.31;1771733;80;21077;-68
2021/07/04 00:57:11;;;;;;;6.85;6.15;;;;;;;24.87;63.90;98800.95;1779612;79;21025;-69
2021/07/04 00:59:37;;;;;;;6.25;5.67;;;;;;;24.87;63.92;98800.15;1778297;79;21787;-68
2021/07/04 01:02:04;;;;;;;5.90;5.40;;;;;;;24.86;63.94;98798.52;1790589;79;21552;-68
2021/07/04 01:04:31;;;;;;;6.72;6.05;;;;;;;24.85;63.98;98802.34;1781812;79;21583;-69
2021/07/04 01:06:58;;;;;;;6.33;5.75;;;;;;;24.83;64.06;98802.62;1785281;79;21542;-69
2021/07/04 01:09:25;;;;;;;6.40;5.80;;;;;;;24.82;64.13;98806.97;1713033;82;21102;-68
2021/07/04 01:11:52;;;;;;;6.58;5.97;;;;;;;24.80;64.18;98808.64;1716077;83;21039;-67
2021/07/04 01:14:18;;;;;;;5.85;5.33;;;;;;;24.79;64.24;98808.36;1719014;82;21063;-68
2021/07/04 01:16:47;;;;;;;6.50;5.90;;;;;;;24.78;64.26;98801.84;1796056;79;21993;-69
2021/07/04 01:19:16;;;;;;;6.97;6.12;;;;;;;24.77;64.30;98792.90;1711049;82;21657;-69
2021/07/04 01:21:44;;;;;;;6.22;5.75;;;;;;;24.76;64.34;98798.61;1774110;79;21087;-69
2021/07/04 01:24:12;;;;;;;6.17;5.67;;;;;;;24.75;64.38;98797.80;1773867;80;21085;-69
2021/07/04 01:26:39;;;;;;;7.22;6.03;;;;;;;24.73;64.41;98795.38;1774016;80;21054;-69
2021/07/04 01:29:05;;;;;;;6.10;5.50;;;;;;;24.72;64.46;98791.05;1774280;80;21122;-68
2021/07/04 01:31:34;;;;;;;6.67;5.83;;;;;;;24.71;64.53;98795.40;1773970;80;21038;-68
2021/07/04 01:34:02;;;;;;;5.92;5.42;;;;;;;24.68;64.57;98791.33;1772569;80;21038;-68
2021/07/04 01:36:34;;;;;;;7.03;6.33;;;;;;;24.67;64.59;98798.42;1773988;80;21069;-69
2021/07/04 01:39:04;;;;;;;7.25;6.65;;;;;;;24.65;64.63;98790.55;1774262;80;21058;-68
2021/07/04 01:41:33;;;;;;;8.60;6.58;;;;;;;24.64;64.69;98793.55;1774086;80;21851;-68
2021/07/04 01:44:03;;;;;;;7.15;6.58;;;;;;;24.61;64.72;98785.43;1784379;80;21459;-68
2021/07/04 01:46:30;;;;;;;6.47;5.90;;;;;;;24.60;64.78;98789.78;1778474;79;21104;-68
2021/07/04 01:48:58;;;;;;;6.92;6.42;;;;;;;24.59;64.84;98789.50;1773947;80;21038;-68
2021/07/04 01:51:26;;;;;;;7.22;6.53;;;;;;;24.58;64.85;98787.34;1773932;80;21127;-68
2021/07/04 01:53:52;;;;;;;6.97;6.37;;;;;;;24.56;64.87;98785.47;1773906;79;21047;-67
2021/07/04 01:56:21;;;;;;;7.00;6.30;;;;;;;24.56;64.89;98788.17;1773608;80;21046;-69
2021/07/04 01:58:49;;;;;;;6.92;6.28;;;;;;;24.53;64.91;98782.78;1794467;80;20984;-69
2021/07/04 02:01:17;;;;;;;7.30;6.70;;;;;;;24.55;64.95;98785.73;1782020;79;21548;-69
2021/07/04 02:03:43;;;;;;;7.72;6.10;;;;;;;24.52;65.04;98786.58;1777597;80;21015;-68
2021/07/04 02:06:12;;;;;;;6.70;6.17;;;;;;;24.51;65.17;98783.61;1795043;79;21213;-69
2021/07/04 02:08:41;;;;;;;6.90;6.30;;;;;;;24.49;65.26;98785.77;1793740;80;20999;-69
2021/07/04 02:11:09;;;;;;;7.15;6.65;;;;;;;24.48;65.33;98788.76;1774147;80;21588;-68
2021/07/04 02:13:37;;;;;;;7.53;6.80;;;;;;;24.48;65.41;98796.91;1773898;79;21045;-69
2021/07/04 02:16:07;;;;;;;7.03;6.42;;;;;;;24.46;65.46;98799.89;1775679;80;20990;-68
2021/07/04 02:18:51;;;;;;;7.33;6.67;;;;;;;24.45;65.54;98800.17;1781068;80;21158;-69
2021/07/04 02:21:23;;;;;;;7.25;6.55;;;;;;;24.43;65.62;98805.08;1725798;79;21058;-68
2021/07/04 02:23:51;;;;;;;7.25;6.65;;;;;;;24.41;65.66;98803.98;1769660;80;21061;-68
2021/07/04 02:26:29;;;;;;;8.18;6.72;;;;;;;24.41;65.67;98808.62;1749703;80;21006;-70
2021/07/04 02:28:57;;;;;;;7.28;6.67;;;;;;;24.39;65.68;98810.25;1781688;80;22048;-68
2021/07/04 02:31:25;;;;;;;7.80;7.05;;;;;;;24.37;65.67;98823.30;1779827;80;21063;-69
2021/07/04 02:33:53;;;;;;;8.20;7.17;;;;;;;24.35;65.67;98826.84;1781852;80;21120;-69
2021/07/04 02:36:21;;;;;;;7.60;6.97;;;;;;;24.36;65.69;98833.90;1782184;79;21061;-69
2021/07/04 02:38:47;;;;;;;7.58;6.87;;;;;;;24.34;65.78;98831.46;1782125;80;21025;-69
2021/07/04 02:41:16;;;;;;;7.87;7.10;;;;;;;24.33;65.80;98829.02;1782155;79;21010;-68
2021/07/04 02:43:43;;;;;;;6.72;6.20;;;;;;;24.33;65.87;98830.38;1782059;80;21195;-71
2021/07/04 02:46:14;;;;;;;7.08;6.45;;;;;;;24.41;65.75;98838.48;1782037;79;21116;-69
2021/07/04 02:48:42;;;;;;;7.22;6.55;;;;;;;24.42;65.65;98838.20;1782074;79;21061;-69
2021/07/04 02:51:10;;;;;;;7.33;6.67;;;;;;;24.41;65.62;98837.12;1782161;79;20986;-68
2021/07/04 02:53:37;;;;;;;8.05;7.42;;;;;;;24.40;65.56;98835.52;1782185;80;21100;-70
2021/07/04 02:56:06;;;;;;;7.90;7.17;;;;;;;24.41;65.56;98834.41;1781450;80;21106;-69
2021/07/04 02:58:35;;;;;;;7.85;7.08;;;;;;;24.39;65.58;98838.75;1781693;80;21061;-69
2021/07/04 03:01:02;;;;;;;7.65;7.00;;;;;;;24.39;65.59;98843.37;1782578;80;21057;-68
2021/07/04 03:03:29;;;;;;;7.85;7.08;;;;;;;24.39;65.64;98854.23;1782075;79;21599;-68
2021/07/04 03:05:57;;;;;;;8.43;7.58;;;;;;;24.38;65.69;98855.31;1782081;80;21018;-69
2021/07/04 03:08:24;;;;;;;7.58;6.92;;;;;;;24.38;65.74;98856.14;1782165;80;21084;-69
2021/07/04 03:10:53;;;;;;;7.92;7.25;;;;;;;24.38;65.78;98860.22;1782046;79;21025;-69
2021/07/04 03:13:21;;;;;;;8.68;7.80;;;;;;;24.36;65.82;98867.83;1780869;80;22033;-69
2021/07/04 03:15:48;;;;;;;8.05;7.40;;;;;;;24.38;65.86;98868.36;1782281;79;21018;-69
2021/07/04 03:18:16;;;;;;;8.88;8.08;;;;;;;24.37;65.97;98864.01;1782154;79;21035;-69
2021/07/04 03:20:42;;;;;;;8.30;7.60;;;;;;;24.36;66.05;98861.56;1782571;79;21081;-69
2021/07/04 03:23:11;;;;;;;9.75;8.93;;;;;;;24.36;66.08;98858.85;1781954;80;21034;-69
2021/07/04 03:25:37;;;;;;;9.23;8.35;;;;;;;24.35;66.10;98858.05;1781008;80;21017;-69
2021/07/04 03:28:05;;;;;;;10.70;9.83;;;;;;;24.34;66.16;98859.16;1762284;80;21029;-69
2021/07/04 03:30:33;;;;;;;11.08;10.18;;;;;;;24.34;66.18;98866.75;1781923;80;21030;-68
2021/07/04 03:33:01;;;;;;;10.90;9.95;;;;;;;24.34;66.21;98870.81;1757055;79;21081;-71
2021/07/04 03:35:29;;;;;;;11.75;10.30;;;;;;;24.34;66.24;98872.17;1720991;82;21079;-68
2021/07/04 03:37:57;;;;;;;11.40;10.45;;;;;;;24.34;66.30;98870.02;1782320;79;21587;-68
2021/07/04 03:40:24;;;;;;;11.33;10.32;;;;;;;24.33;66.37;98864.30;1766047;80;21498;-69
2021/07/04 03:42:53;;;;;;;11.65;10.65;;;;;;;24.34;66.42;98871.37;1777574;79;21072;-69
2021/07/04 03:45:22;;;;;;;12.40;11.20;;;;;;;24.36;66.50;98871.90;1782059;80;21557;-68
2021/07/04 03:47:49;;;;;;;13.45;12.13;;;;;;;24.44;66.33;98879.45;1782143;80;21061;-69
2021/07/04 03:50:17;;;;;;;11.75;10.70;;;;;;;24.46;66.37;98880.53;1782333;80;21054;-67
2021/07/04 03:52:45;;;;;;;11.95;10.95;;;;;;;24.46;66.44;98890.83;1782190;79;21010;-69
2021/07/04 03:55:14;;;;;;;11.83;10.82;;;;;;;24.45;66.56;98895.98;1782075;79;21040;-69
2021/07/04 03:57:42;;;;;;;10.78;9.88;;;;;;;24.45;66.72;98894.63;1782713;79;21116;-68
2021/07/04 04:00:12;;;;;;;10.68;9.68;;;;;;;24.45;66.95;98893.27;1794796;79;21503;-69
2021/07/04 04:02:47;;;;;;;9.90;8.98;;;;;;;24.45;67.20;98891.91;1800467;79;21009;-68
2021/07/04 04:05:15;;;;;;;9.83;9.00;;;;;;;24.45;67.41;98895.18;1715183;82;21074;-69
2021/07/04 04:07:45;;;;;;;11.00;9.93;;;;;;;24.44;67.60;98898.45;1782307;79;21530;-68
2021/07/04 04:10:13;;;;;;;9.95;9.13;;;;;;;24.46;67.78;98904.96;1782498;79;21135;-68
2021/07/04 04:12:43;;;;;;;9.05;8.28;;;;;;;24.46;67.82;98904.96;1782352;80;21026;-68
2021/07/04 04:15:14;;;;;;;9.85;9.05;;;;;;;24.47;67.74;98906.05;1794231;79;21026;-68
2021/07/04 04:17:42;;;;;;;10.85;8.78;;;;;;;24.48;67.77;98906.84;1791507;79;20994;-69
2021/07/04 04:20:12;;;;;;;11.25;9.98;;;;;;;24.50;67.67;98908.73;1773801;79;21061;-69
2021/07/04 04:22:42;;;;;;;10.72;9.83;;;;;;;24.50;67.67;98908.18;1773740;79;21019;-68
2021/07/04 04:25:10;;;;;;;10.80;9.78;;;;;;;24.56;67.56;98905.48;1764376;80;21507;-68
2021/07/04 04:27:38;;;;;;;12.73;11.57;;;;;;;24.65;67.33;98899.73;1709677;82;21070;-68
2021/07/04 04:30:08;;;;;;;12.30;11.05;;;;;;;24.68;67.30;98904.58;1774434;80;21561;-68
2021/07/04 04:32:34;;;;;;;10.53;9.55;;;;;;;24.69;67.22;98903.50;1746905;80;21003;-68
2021/07/04 04:35:01;;;;;;;11.65;10.60;;;;;;;24.71;67.21;98904.83;1774132;80;21133;-68
2021/07/04 04:37:29;;;;;;;10.82;9.83;;;;;;;24.73;67.24;98903.20;1773875;79;21085;-68
2021/07/04 04:39:57;;;;;;;11.03;9.60;;;;;;;24.75;67.25;98906.99;1773979;80;21105;-68
2021/07/04 04:42:24;;;;;;;12.18;11.03;;;;;;;24.76;67.36;98907.24;1787956;80;21014;-69
2021/07/04 04:44:50;;;;;;;10.98;9.98;;;;;;;24.77;67.41;98912.40;1708812;82;21039;-68
2021/07/04 04:47:17;;;;;;;11.43;10.43;;;;;;;24.78;67.45;98910.48;1774052;80;21133;-68
2021/07/04 04:49:43;;;;;;;11.12;10.15;;;;;;;24.79;67.46;98912.13;1774206;80;21022;-68
2021/07/04 04:52:11;;;;;;;12.95;11.75;;;;;;;24.81;67.54;98915.37;1774152;80;21600;-68
2021/07/04 04:54:39;;;;;;;13.00;11.80;;;;;;;24.80;67.57;98915.09;1773914;80;21007;-70
2021/07/04 04:57:06;;;;;;;12.37;11.18;;;;;;;24.80;67.68;98910.48;1774105;80;21554;-69
2021/07/04 04:59:38;;;;;;;11.45;10.40;;;;;;;24.81;67.76;98903.95;1774056;79;21625;-68
2021/07/04 05:02:06;;;;;;;12.50;11.30;;;;;;;24.87;67.65;98907.44;1754129;80;21155;-69
2021/07/04 05:04:33;;;;;;;11.90;10.80;;;;;;;24.98;67.38;98909.55;1773975;80;21104;-68
2021/07/04 05:06:59;;;;;;;13.83;12.60;;;;;;;24.99;67.40;98916.59;1779532;80;21018;-69
2021/07/04 05:09:26;;;;;;;18.32;16.27;;;;;;;25.00;67.46;98911.44;1795428;80;21022;-69
2021/07/04 05:11:53;;;;;;;16.30;14.60;;;;;;;25.00;67.42;98906.80;1780666;80;21143;-69
2021/07/04 05:14:19;;;;;;;14.73;13.28;;;;;;;25.03;67.42;98909.48;1773889;80;21094;-68
2021/07/04 05:16:46;;;;;;;16.02;13.53;;;;;;;25.03;67.42;98907.58;1774745;80;22227;-68
2021/07/04 05:19:13;;;;;;;13.75;12.45;;;;;;;25.05;67.41;98911.37;1782182;79;20987;-69
2021/07/04 05:21:41;;;;;;;13.55;12.25;;;;;;;25.05;67.49;98910.02;1782210;80;21543;-69
2021/07/04 05:24:08;;;;;;;13.30;12.00;;;;;;;25.04;67.57;98909.22;1782370;80;21133;-68
2021/07/04 05:26:35;;;;;;;13.75;12.23;;;;;;;25.06;67.66;98904.86;1782169;80;21002;-69
2021/07/04 05:29:01;;;;;;;13.83;12.43;;;;;;;25.05;67.68;98898.63;1782236;79;21033;-68
2021/07/04 05:31:28;;;;;;;13.43;12.23;;;;;;;25.07;67.65;98902.39;1782290;80;21061;-67
2021/07/04 05:33:54;;;;;;;24.85;21.30;;;;;;;25.07;67.67;98903.75;1782663;79;21555;-68
2021/07/04 05:36:21;;;;;;;17.85;16.05;;;;;;;25.07;67.74;98902.39;1760450;80;21206;-68
2021/07/04 05:38:47;;;;;;;15.88;14.33;;;;;;;25.13;67.79;98906.72;1782232;80;21007;-70
2021/07/04 05:41:14;;;;;;;13.45;12.23;;;;;;;25.21;67.60;98913.44;1782198;80;21041;-69
2021/07/04 05:43:43;;;;;;;12.33;11.12;;;;;;;25.21;67.67;98904.73;1782139;80;21725;-68
2021/07/04 05:46:09;;;;;;;11.12;10.03;;;;;;;25.21;67.76;98910.17;1797098;79;21042;-69
2021/07/04 05:48:36;;;;;;;11.00;10.00;;;;;;;25.22;67.84;98909.09;1801361;79;21101;-68
2021/07/04 05:51:03;;;;;;;11.05;10.15;;;;;;;25.23;67.85;98916.16;1801132;79;20991;-68
2021/07/04 05:53:29;;;;;;;10.88;9.88;;;;;;;25.25;67.87;98913.16;1786163;79;21085;-69
2021/07/04 05:55:55;;;;;;;11.93;10.00;;;;;;;25.25;67.97;98907.17;1770191;79;21089;-69
2021/07/04 05:58:21;;;;;;;10.75;9.80;;;;;;;25.28;67.98;98907.14;1775568;80;21033;-69
2021/07/04 06:00:48;;;;;;;12.00;10.93;;;;;;;25.28;67.98;98907.97;1767315;80;22003;-69
2021/07/04 06:03:16;;;;;;;11.03;9.95;;;;;;;25.30;68.01;98902.23;1782072;80;21011;-68
2021/07/04 06:05:42;;;;;;;10.53;9.68;;;;;;;25.31;68.09;98897.87;1782367;80;21495;-69
2021/07/04 06:08:09;;;;;;;10.65;9.65;;;;;;;25.33;68.28;98895.43;1782229;80;21518;-69
2021/07/04 06:10:35;;;;;;;12.28;11.18;;;;;;;25.40;68.33;98897.24;1782343;79;21022;-71
2021/07/04 06:13:03;;;;;;;12.98;11.80;;;;;;;25.50;68.13;98892.53;1782124;79;21142;-70
2021/07/04 06:15:29;;;;;;;11.78;10.68;;;;;;;25.53;68.06;98895.21;1781995;80;21068;-68
2021/07/04 06:17:55;;;;;;;11.53;10.50;;;;;;;25.54;67.93;98890.05;1752772;80;21088;-68
2021/07/04 06:20:22;;;;;;;11.20;10.18;;;;;;;25.55;67.85;98890.30;1784512;78;21088;-68
2021/07/04 06:22:49;;;;;;;11.12;10.15;;;;;;;25.56;67.84;98891.13;1784285;78;21121;-69
2021/07/04 06:25:16;;;;;;;11.38;10.48;;;;;;;25.57;67.73;98888.66;1797271;78;21121;-69
2021/07/04 06:27:43;;;;;;;11.35;10.45;;;;;;;25.59;67.67;98889.17;1718683;82;21637;-68
2021/07/04 06:30:12;;;;;;;11.35;10.35;;;;;;;25.60;67.56;98886.73;1784380;80;21105;-68
2021/07/04 06:32:38;;;;;;;11.45;10.55;;;;;;;25.63;67.60;98888.86;1784554;78;21045;-68
2021/07/04 06:35:07;;;;;;;11.43;10.32;;;;;;;25.65;67.56;98877.97;1784609;80;21002;-68
2021/07/04 06:37:33;;;;;;;11.43;10.50;;;;;;;25.68;67.52;98880.09;1799562;79;21199;-68
2021/07/04 06:39:59;;;;;;;12.10;11.10;;;;;;;25.70;67.57;98882.53;1784468;78;21053;-68
2021/07/04 06:42:26;;;;;;;11.40;10.48;;;;;;;25.72;67.59;98880.89;1784463;80;21069;-71
2021/07/04 06:44:52;;;;;;;11.68;10.60;;;;;;;25.75;67.66;98880.30;1784379;80;21030;-69
2021/07/04 06:47:18;;;;;;;10.88;9.98;;;;;;;25.78;67.66;98881.89;1784466;78;21178;-69
2021/07/04 06:49:44;;;;;;;10.23;9.43;;;;;;;25.86;67.63;98883.16;1787897;79;22571;-68
2021/07/04 06:52:11;;;;;;;11.95;10.95;;;;;;;25.96;67.45;98885.81;1806170;79;21518;-69
2021/07/04 06:54:37;;;;;;;11.50;10.60;;;;;;;25.98;67.37;98876.81;1789120;78;20986;-69
2021/07/04 06:59:49;;;;;;;11.10;10.20;;;;;;;26.03;67.25;98879.45;1787172;79;21026;-69
2021/07/04 07:02:15;;;;;;;11.30;10.20;;;;;;;26.06;67.13;98875.36;1727542;82;21506;-69
2021/07/04 07:04:41;;;;;;;10.68;9.78;;;;;;;26.09;66.98;98887.80;1784133;80;21021;-69
2021/07/04 07:07:08;;;;;;;11.38;10.48;;;;;;;26.13;66.78;98884.52;1787171;78;21057;-70
2021/07/04 07:09:34;;;;;;;11.25;10.43;;;;;;;26.15;66.65;98883.66;1727564;82;21133;-70
2021/07/04 07:12:00;;;;;;;11.90;10.88;;;;;;;26.17;66.56;98882.27;1784655;80;20997;-68
2021/07/04 07:14:27;;;;;;;11.00;10.00;;;;;;;26.19;66.48;98880.09;1784495;80;21068;-69
2021/07/04 07:16:55;;;;;;;12.00;11.00;;;;;;;26.22;66.36;98878.69;1784223;80;21104;-69
2021/07/04 07:19:21;;;;;;;10.40;9.58;;;;;;;26.24;66.23;98873.20;1782313;79;21018;-69
2021/07/04 07:21:47;;;;;;;11.20;10.05;;;;;;;26.28;66.19;98881.59;1782142;80;21009;-69
2021/07/04 07:24:15;;;;;;;11.88;10.75;;;;;;;26.30;66.15;98880.75;1782211;80;21014;-70
2021/07/04 07:26:43;;;;;;;11.53;10.43;;;;;;;26.34;66.11;98879.05;1781462;80;23441;-68
2021/07/04 07:29:10;;;;;;;11.25;10.25;;;;;;;26.36;66.06;98882.29;1782074;80;21034;-69
2021/07/04 07:33:38;;;;;;;11.88;10.88;;;;;;;26.49;65.94;98879.40;1869937;76;22358;-69
2021/07/04 07:36:05;;;;;;;11.75;10.68;;;;;;;26.45;66.00;98883.82;1823386;78;21068;-69
2021/07/04 07:38:32;;;;;;;11.60;10.48;;;;;;;26.48;65.83;98879.96;1826375;77;22582;-68
2021/07/04 07:40:58;;;;;;;11.48;10.40;;;;;;;26.54;66.58;98881.23;1826178;78;20950;-69
2021/07/04 07:43:24;;;;;;;11.88;10.78;;;;;;;26.56;65.81;98877.12;1826228;78;20980;-69
2021/07/04 07:45:51;;;;;;;11.05;10.15;;;;;;;26.61;65.55;98874.90;1826227;78;20961;-70
2021/07/04 07:48:17;;;;;;;10.55;9.55;;;;;;;26.66;66.09;98872.11;1826285;78;20992;-70
2021/07/04 07:50:45;;;;;;;12.43;11.35;;;;;;;26.71;65.88;98863.03;1825292;77;21135;-68
2021/07/04 07:53:12;;;;;;;10.93;10.13;;;;;;;26.75;65.45;98864.06;1826391;78;21040;-68
2021/07/04 07:55:39;;;;;;;10.53;9.48;;;;;;;26.78;64.88;98869.73;1826170;78;20953;-69
2021/07/04 07:58:05;;;;;;;12.28;11.08;;;;;;;26.81;64.55;98871.05;1825894;78;20994;-70
2021/07/04 08:00:32;;;;;;;11.78;10.78;;;;;;;26.86;64.36;98877.78;1822184;78;20998;-69
2021/07/04 08:02:59;;;;;;;10.58;9.68;;;;;;;26.90;64.23;98880.17;1825067;78;21122;-69
2021/07/04 08:05:25;;;;;;;10.72;9.70;;;;;;;26.94;64.23;98874.38;1822154;78;21075;-70
2021/07/04 08:07:52;;;;;;;10.78;9.58;;;;;;;26.98;63.90;98875.95;1822970;78;20997;-69
2021/07/04 08:10:20;;;;;;;10.25;9.35;;;;;;;27.02;63.70;98873.72;1825155;78;21073;-70
2021/07/04 08:12:47;;;;;;;10.70;9.80;;;;;;;27.06;63.68;98873.91;1826107;77;21510;-69
2021/07/04 08:15:14;;;;;;;10.10;9.30;;;;;;;27.10;63.28;98882.30;1826186;78;21128;-69
2021/07/04 08:17:41;;;;;;;9.95;9.15;;;;;;;27.14;63.11;98878.70;1815386;77;21486;-69
2021/07/04 08:20:11;;;;;;;9.73;8.85;;;;;;;27.18;62.98;98881.08;1824699;78;21505;-70
2021/07/04 08:22:39;;;;;;;9.88;8.90;;;;;;;27.22;62.71;98874.48;1826081;78;21054;-68
2021/07/04 08:25:07;;;;;;;9.60;8.75;;;;;;;27.25;62.24;98876.09;1826137;78;21025;-69
2021/07/04 08:27:33;;;;;;;8.98;8.18;;;;;;;27.29;61.67;98880.92;1826675;78;21077;-69
2021/07/04 08:30:00;;;;;;;9.10;8.30;;;;;;;27.33;61.36;98881.94;1826140;78;21064;-68
2021/07/04 08:32:26;;;;;;;8.63;7.92;;;;;;;27.36;61.01;98883.52;1826181;78;21053;-71
2021/07/04 08:34:53;;;;;;;8.50;7.70;;;;;;;27.40;60.75;98879.64;1826451;78;21485;-69
2021/07/04 08:37:19;;;;;;;9.40;8.58;;;;;;;27.43;60.73;98877.12;1826201;78;21140;-69
2021/07/04 08:39:45;;;;;;;7.78;7.05;;;;;;;27.46;60.67;98875.14;1826510;77;21237;-69
2021/07/04 08:42:13;;;;;;;9.05;8.18;;;;;;;27.51;60.28;98879.71;1826136;78;21251;-70
2021/07/04 08:44:46;;;;;;;8.75;7.92;;;;;;;27.55;59.75;98881.28;1825700;78;21057;-70
2021/07/04 08:47:12;;;;;;;8.80;7.92;;;;;;;27.57;59.10;98877.13;1825273;78;20974;-70
2021/07/04 08:49:39;;;;;;;8.68;7.87;;;;;;;27.62;59.14;98878.41;1825622;77;20994;-69
2021/07/04 08:52:05;;;;;;;8.08;7.40;;;;;;;27.66;59.38;98878.59;1825427;78;21122;-69
2021/07/04 08:54:32;;;;;;;7.92;7.17;;;;;;;27.71;59.48;98877.70;1825292;78;21026;-70
2021/07/04 08:56:58;;;;;;;10.20;8.28;;;;;;;27.75;59.52;98874.62;1821537;78;21028;-71
2021/07/04 08:59:24;;;;;;;7.85;7.08;;;;;;;27.78;59.31;98876.75;1824590;78;21509;-69
2021/07/04 09:01:51;;;;;;;8.03;7.42;;;;;;;27.82;58.91;98879.13;1824455;78;20992;-69
2021/07/04 09:04:19;;;;;;;7.58;6.87;;;;;;;27.87;57.92;98879.00;1823810;78;21064;-69
2021/07/04 09:06:55;;;;;;;8.10;7.28;;;;;;;27.91;57.69;98878.70;1821922;78;21049;-71
2021/07/04 09:09:29;;;;;;;7.60;6.90;;;;;;;27.94;57.10;98878.08;1804644;78;21271;-71
2021/07/04 09:12:11;;;;;;;7.35;6.65;;;;;;;27.97;56.80;98874.75;1825602;78;21058;-69
2021/07/04 09:14:45;;;;;;;8.28;7.58;;;;;;;28.03;56.66;98885.02;1825822;77;20990;-70
2021/07/04 09:17:16;;;;;;;7.40;6.75;;;;;;;28.05;56.84;98878.70;1822864;78;21040;-72
2021/07/04 09:19:56;;;;;;;7.90;7.20;;;;;;;28.09;57.07;98870.70;1823829;78;28244;-71
2021/07/04 09:22:37;;;;;;;7.92;7.28;;;;;;;28.13;56.87;98875.23;1824740;77;21006;-70
2021/07/04 09:25:14;;;;;;;8.35;7.65;;;;;;;28.18;56.81;98881.97;1825631;78;21369;-70
2021/07/04 09:27:44;;;;;;;7.47;6.85;;;;;;;28.22;57.06;98874.78;1821912;78;21524;-69
2021/07/04 09:30:13;;;;;;;7.78;6.92;;;;;;;28.27;57.10;98867.58;1823800;78;21100;-70
2021/07/04 09:32:47;;;;;;;7.28;6.50;;;;;;;28.32;57.00;98868.81;1827275;77;21044;-70
2021/07/04 09:35:16;;;;;;;7.40;6.53;;;;;;;28.36;57.14;98870.65;1829869;78;21063;-71
2021/07/04 09:37:46;;;;;;;7.37;6.70;;;;;;;28.40;56.97;98870.28;1801420;78;21017;-70
2021/07/04 09:40:26;;;;;;;6.83;6.33;;;;;;;28.46;56.73;98868.81;1828033;78;21504;-70
2021/07/04 09:43:08;;;;;;;7.15;6.55;;;;;;;28.49;56.54;98865.44;1830497;78;21140;-71
2021/07/04 09:45:53;;;;;;;7.62;6.92;;;;;;;28.52;56.28;98864.30;1830197;78;20993;-70
2021/07/04 09:48:24;;;;;;;7.22;6.62;;;;;;;28.55;56.09;98860.97;1830722;78;21012;-69
2021/07/04 09:50:52;;;;;;;7.55;6.95;;;;;;;28.58;55.90;98860.33;1830765;78;21021;-70
2021/07/04 09:53:20;;;;;;;7.17;6.58;;;;;;;28.61;55.92;98863.02;1831954;78;21080;-69
2021/07/04 09:55:53;;;;;;;6.85;6.35;;;;;;;28.66;55.75;98860.72;1831817;78;21144;-70
2021/07/04 09:58:20;;;;;;;;;;;;;;;28.69;55.46;98863.64;1834477;77;22061;-69
2021/07/04 10:00:47;;;;;;;7.12;6.47;;;;;;;28.73;55.18;98861.11;1831890;78;20143;-70
2021/07/04 10:03:19;;;;;;;12.30;6.67;;;;;;;28.69;55.07;98859.55;1831675;78;21041;-70
2021/07/04 10:06:01;;;;;;;7.22;6.53;;;;;;;28.72;54.95;98856.74;1830454;77;21001;-69
2021/07/04 10:08:34;;;;;;;6.40;5.90;;;;;;;28.75;54.74;98854.77;1830378;78;21114;-71
2021/07/04 10:11:09;;;;;;;8.33;6.75;;;;;;;28.78;54.61;98854.12;1831641;77;21077;-69
2021/07/04 10:13:41;;;;;;;7.92;6.70;;;;;;;28.81;54.42;98854.89;1831631;78;21061;-69
2021/07/04 10:16:14;;;;;;;7.40;6.80;;;;;;;28.83;54.44;98845.25;1831901;78;21091;-71
2021/07/04 10:18:46;;;;;;;7.35;6.75;;;;;;;28.88;54.68;98847.61;1831967;78;21470;-71
2021/07/04 10:21:13;;;;;;;7.27;6.57;;;;;;;28.93;54.74;98846.12;1832181;77;21104;-70
2021/07/04 10:23:50;;;;;;;7.10;6.50;;;;;;;28.97;54.79;98838.34;1831498;78;21335;-70
2021/07/04 10:26:17;;;;;;;7.10;6.40;;;;;;;29.04;54.75;98839.28;1831760;78;20989;-72
2021/07/04 10:28:43;;;;;;;8.35;7.20;;;;;;;29.08;54.94;98844.94;1831786;78;20994;-69
2021/07/04 10:31:13;;;;;;;7.85;7.17;;;;;;;29.11;54.89;98847.86;1832075;78;21056;-70
2021/07/04 10:33:40;;;;;;;7.65;6.78;;;;;;;29.16;54.73;98845.00;1827661;77;21815;-70
2021/07/04 10:36:18;;;;;;;7.95;7.15;;;;;;;29.19;54.47;98842.22;1821902;77;21512;-70
2021/07/04 10:39:01;;;;;;;7.95;6.90;;;;;;;29.23;54.52;98841.04;1823917;78;21029;-70
2021/07/04 10:41:34;;;;;;;7.12;6.58;;;;;;;29.24;54.19;98837.17;1825834;77;21015;-69
2021/07/04 10:44:08;;;;;;;7.30;6.70;;;;;;;29.28;54.24;98833.48;1825730;78;21315;-69
2021/07/04 10:46:46;;;;;;;7.80;7.10;;;;;;;29.31;54.06;98830.13;1825542;78;21093;-70
2021/07/04 10:49:16;;;;;;;7.62;7.03;;;;;;;29.36;53.65;98829.17;1825526;78;21018;-71
2021/07/04 10:52:11;;;;;;;8.95;7.12;;;;;;;29.39;53.65;98827.98;1824389;77;21045;-69
2021/07/04 10:54:51;;;;;;;7.60;6.97;;;;;;;29.44;53.86;98832.53;1821893;77;21162;-71
2021/07/04 10:57:36;;;;;;;6.87;6.28;;;;;;;29.50;53.92;98827.16;1825696;78;21025;-70
2021/07/04 11:00:08;;;;;;;7.12;6.45;;;;;;;29.56;53.90;98833.30;1825903;77;21833;-70
2021/07/04 11:02:46;;;;;;;7.85;7.15;;;;;;;29.60;53.78;98830.97;1825399;78;21045;-70
2021/07/04 11:05:20;;;;;;;7.30;6.80;;;;;;;29.65;53.54;98827.84;1825620;77;20960;-70
2021/07/04 11:08:00;;;;;;;7.78;6.97;;;;;;;29.68;53.44;98823.11;1824595;77;21057;-70
2021/07/04 11:10:32;;;;;;;7.22;6.62;;;;;;;29.71;53.37;98820.55;1822860;77;21032;-70
2021/07/04 11:13:19;;;;;;;7.37;6.77;;;;;;;29.75;53.56;98818.02;1825732;77;21080;-71
2021/07/04 11:15:51;;;;;;;7.87;6.90;;;;;;;29.78;53.68;98813.27;1825434;77;21584;-70
2021/07/04 11:18:19;;;;;;;7.15;6.60;;;;;;;29.81;53.31;98807.16;1825736;77;21009;-70
2021/07/04 11:20:51;;;;;;;7.40;6.70;;;;;;;29.84;53.04;98808.45;1825343;77;21044;-70
2021/07/04 11:23:27;;;;;;;7.75;6.92;;;;;;;29.87;52.88;98800.98;1825740;78;22043;-70
2021/07/04 11:26:13;;;;;;;7.55;6.85;;;;;;;29.89;53.20;98805.00;1825482;77;21123;-71
2021/07/04 11:28:47;;;;;;;7.15;6.55;;;;;;;29.94;52.77;98794.45;1822970;77;21059;-71
2021/07/04 11:31:19;;;;;;;8.00;7.30;;;;;;;30.00;52.85;98791.83;1825251;78;21069;-70
2021/07/04 11:33:49;;;;;;;6.92;6.33;;;;;;;30.05;52.83;98790.85;1828670;78;21072;-70
2021/07/04 11:36:27;;;;;;;7.50;6.90;;;;;;;30.11;52.86;98790.94;1830762;77;21464;-69
2021/07/04 11:39:10;;;;;;;6.78;6.22;;;;;;;30.17;52.84;98789.10;1830113;78;21130;-71